Cobourg, Canada
Current Conditions -  °F | °C
As of 9:00 PM on Thursday 18 Dec 2014 (Local Time) from CYPQ Reporting Station
Overcast Overcast  
Wind Chill: 12°   Ceiling: 1600
Heat Index: 23°   Visibility: 9mi
Dew Point: 19°   Wind: 12mph
Humidity: 86%   Direction: 350°N
Pressure: 30.06"   Gusts: 17mph
Location:  43.96°N, 78.17°W
Report Text: CYPQ 190200Z AUTO 35010G15KT 9SM OVC016 M05/M07 A3006 RMK SLP192
Loading
Personal Weather Stations






























Interactive Weather Map New forecast layout! Learn more

10-Day Weather Forecast

Advertisements
Track Severe Weather on mobile